createdAt,value
2018-09-10T00:01:04.090Z,5.63
2018-09-10T00:03:32.037Z,5.67
2018-09-10T00:06:00.017Z,5.33
2018-09-10T00:08:27.964Z,5.80
2018-09-10T00:10:55.908Z,5.77
2018-09-10T00:13:23.840Z,6.57
2018-09-10T00:15:51.778Z,5.43
2018-09-10T00:18:19.729Z,6.10
2018-09-10T00:20:47.726Z,5.23
2018-09-10T00:23:15.947Z,5.43
2018-09-10T00:25:43.885Z,5.63
2018-09-10T00:28:11.798Z,5.77
2018-09-10T00:30:39.974Z,5.90
2018-09-10T00:33:07.975Z,5.13
2018-09-10T00:35:35.917Z,6.07
2018-09-10T00:38:03.865Z,6.40
2018-09-10T00:40:31.803Z,5.57
2018-09-10T00:42:59.752Z,5.83
2018-09-10T00:45:27.729Z,6.03
2018-09-10T00:47:56.504Z,5.93
2018-09-10T00:50:24.765Z,5.70
2018-09-10T00:52:52.751Z,5.50
2018-09-10T00:55:20.799Z,6.30
2018-09-10T00:57:48.815Z,5.90
2018-09-10T01:00:17.024Z,6.00
2018-09-10T01:02:44.950Z,6.20
2018-09-10T01:05:12.891Z,5.60
2018-09-10T01:07:40.838Z,5.37
2018-09-10T01:10:08.775Z,5.67
2018-09-10T01:12:36.741Z,6.00
2018-09-10T01:15:04.700Z,5.87
2018-09-10T01:17:32.635Z,6.57
2018-09-10T01:20:00.596Z,5.80
2018-09-10T01:22:28.528Z,5.87
2018-09-10T01:24:56.506Z,5.57
2018-09-10T01:27:24.450Z,5.53
2018-09-10T01:29:52.378Z,5.97
2018-09-10T01:32:20.332Z,7.07
2018-09-10T01:34:53.627Z,6.60
2018-09-10T01:37:21.589Z,6.43
2018-09-10T01:39:49.531Z,5.90
2018-09-10T01:42:17.742Z,6.03
2018-09-10T01:44:45.675Z,5.73
2018-09-10T01:47:13.640Z,5.77
2018-09-10T01:49:41.580Z,6.37
2018-09-10T01:52:09.513Z,5.57
2018-09-10T01:54:37.432Z,5.23
2018-09-10T01:57:05.363Z,5.83
2018-09-10T01:59:33.318Z,6.57
2018-09-10T02:02:01.232Z,6.10
2018-09-10T02:04:29.206Z,5.63
2018-09-10T02:06:57.157Z,5.77
2018-09-10T02:09:25.114Z,6.13
2018-09-10T02:11:53.082Z,6.20
2018-09-10T02:14:21.044Z,5.97
2018-09-10T02:16:49.098Z,6.57
2018-09-10T02:19:17.031Z,6.37
2018-09-10T02:21:44.984Z,5.83
2018-09-10T02:24:12.992Z,6.27
2018-09-10T02:26:40.926Z,6.13
2018-09-10T02:29:09.166Z,6.27
2018-09-10T02:31:37.046Z,6.10
2018-09-10T02:34:04.970Z,6.23
2018-09-10T02:36:32.922Z,6.90
2018-09-10T02:39:00.840Z,6.47
2018-09-10T02:41:28.792Z,6.53
2018-09-10T02:43:56.725Z,7.53
2018-09-10T02:46:24.676Z,6.20
2018-09-10T02:48:52.604Z,6.07
2018-09-10T02:51:20.638Z,6.20
2018-09-10T02:53:48.590Z,6.87
2018-09-10T02:56:16.527Z,6.43
2018-09-10T02:58:44.461Z,6.20
2018-09-10T03:01:12.416Z,6.57
2018-09-10T03:03:40.627Z,7.00
2018-09-10T03:06:08.552Z,6.53
2018-09-10T03:08:36.491Z,6.37
2018-09-10T03:11:04.445Z,6.30
2018-09-10T03:13:32.379Z,7.67
2018-09-10T03:16:00.321Z,6.30
2018-09-10T03:18:28.244Z,6.57
2018-09-10T03:20:56.185Z,6.27
2018-09-10T03:23:24.176Z,6.93
2018-09-10T03:25:52.122Z,7.20
2018-09-10T03:28:20.077Z,6.63
2018-09-10T03:30:48.290Z,7.10
2018-09-10T03:33:16.211Z,6.10
2018-09-10T03:35:44.147Z,6.47
2018-09-10T03:38:12.104Z,7.07
2018-09-10T03:40:43.613Z,6.70
2018-09-10T03:43:11.563Z,6.90
2018-09-10T03:45:39.776Z,6.60
2018-09-10T03:48:07.999Z,5.90
2018-09-10T03:50:35.933Z,6.27
2018-09-10T03:53:03.898Z,6.87
2018-09-10T03:55:31.808Z,6.57
2018-09-10T03:57:59.856Z,6.13
2018-09-10T04:00:27.798Z,5.63
2018-09-10T04:02:55.826Z,6.57
2018-09-10T04:05:23.826Z,6.83
2018-09-10T04:07:51.774Z,6.10
2018-09-10T04:10:19.738Z,6.40
2018-09-10T04:12:47.718Z,5.70
2018-09-10T04:15:15.658Z,6.30
2018-09-10T04:17:43.585Z,5.60
2018-09-10T04:20:12.076Z,5.77
2018-09-10T04:22:41.192Z,6.07
2018-09-10T04:25:09.132Z,5.73
2018-09-10T04:27:37.706Z,5.47
2018-09-10T04:30:09.004Z,5.97
2018-09-10T04:32:36.965Z,6.33
2018-09-10T04:35:05.246Z,6.07
2018-09-10T04:37:33.185Z,5.80
2018-09-10T04:40:01.123Z,5.20
2018-09-10T04:42:29.375Z,5.87
2018-09-10T04:44:57.307Z,5.70
2018-09-10T04:47:25.376Z,6.23
2018-09-10T04:49:53.439Z,5.27
2018-09-10T04:52:21.291Z,6.10
2018-09-10T04:54:49.236Z,5.23
2018-09-10T04:57:17.502Z,5.80
2018-09-10T04:59:45.434Z,6.10
2018-09-10T05:02:13.375Z,5.50
2018-09-10T05:04:41.574Z,6.37
2018-09-10T05:07:09.557Z,5.77
2018-09-10T05:09:37.478Z,5.67
2018-09-10T05:12:07.355Z,6.80
2018-09-10T05:14:35.285Z,6.10
2018-09-10T05:17:03.547Z,6.43
2018-09-10T05:19:32.435Z,5.80
2018-09-10T05:22:00.392Z,6.07
2018-09-10T05:24:28.424Z,5.70
2018-09-10T05:26:56.366Z,6.23
2018-09-10T05:29:24.646Z,6.20
2018-09-10T05:31:52.575Z,6.40
2018-09-10T05:34:20.510Z,5.93
2018-09-10T05:36:48.461Z,6.43
2018-09-10T05:39:16.476Z,6.33
2018-09-10T05:41:44.492Z,7.10
2018-09-10T05:44:12.452Z,7.60
2018-09-10T05:46:40.524Z,7.10
2018-09-10T05:49:08.593Z,6.70
2018-09-10T05:51:36.823Z,6.80
2018-09-10T05:54:04.781Z,6.47
2018-09-10T05:56:32.752Z,7.13
2018-09-10T05:59:01.004Z,7.23
2018-09-10T06:01:28.969Z,7.30
2018-09-10T06:03:56.941Z,9.50
2018-09-10T06:06:24.944Z,8.47
2018-09-10T06:08:52.932Z,7.30
2018-09-10T06:11:20.882Z,6.63
2018-09-10T06:13:48.950Z,7.07
2018-09-10T06:16:16.918Z,6.70
2018-09-10T06:18:44.836Z,6.67
2018-09-10T06:21:12.822Z,6.30
2018-09-10T06:23:40.824Z,6.73
2018-09-10T06:26:08.967Z,6.70
2018-09-10T06:28:40.622Z,6.47
2018-09-10T06:31:08.609Z,6.70
2018-09-10T06:33:36.720Z,7.50
2018-09-10T06:36:04.649Z,6.50
2018-09-10T06:38:32.606Z,7.27
2018-09-10T06:41:00.552Z,6.70
2018-09-10T06:43:28.497Z,6.23
2018-09-10T06:45:56.456Z,5.97
2018-09-10T06:48:24.405Z,5.77
2018-09-10T06:50:52.351Z,5.60
2018-09-10T06:53:20.333Z,6.00
2018-09-10T06:55:48.268Z,6.23
2018-09-10T06:58:16.225Z,5.40
2018-09-10T07:00:44.176Z,5.60
2018-09-10T07:03:12.114Z,5.30
2018-09-10T07:05:40.072Z,4.97
2018-09-10T07:08:08.022Z,5.27
2018-09-10T07:10:36.060Z,5.20
2018-09-10T07:13:04.030Z,5.10
2018-09-10T07:15:32.217Z,4.83
2018-09-10T07:18:00.180Z,4.70
2018-09-10T07:20:28.125Z,4.87
2018-09-10T07:22:56.067Z,5.10
2018-09-10T07:25:24.011Z,5.30
2018-09-10T07:27:51.970Z,4.47
2018-09-10T07:30:19.965Z,4.20
2018-09-10T07:32:47.911Z,6.50
2018-09-10T07:35:15.860Z,4.43
2018-09-10T07:37:43.803Z,4.93
2018-09-10T07:40:11.756Z,3.90
2018-09-10T07:42:39.691Z,3.90
2018-09-10T07:45:11.300Z,4.87
2018-09-10T07:47:39.258Z,3.97
2018-09-10T07:50:07.207Z,4.30
2018-09-10T07:52:35.145Z,4.03
2018-09-10T07:55:03.108Z,4.63
2018-09-10T07:57:31.075Z,4.50
2018-09-10T08:02:32.292Z,5.10
2018-09-10T08:05:00.580Z,3.70
2018-09-10T08:07:28.515Z,5.33
2018-09-10T08:09:56.458Z,4.10
2018-09-10T08:12:24.451Z,3.90
2018-09-10T08:14:52.385Z,3.37
2018-09-10T08:17:20.326Z,3.23
2018-09-10T08:19:48.305Z,3.57
2018-09-10T08:22:16.268Z,3.50
2018-09-10T08:24:44.199Z,3.17
2018-09-10T08:27:12.452Z,4.50
2018-09-10T08:29:40.449Z,4.77
2018-09-10T08:32:08.418Z,2.87
2018-09-10T08:34:36.399Z,4.30
2018-09-10T08:37:04.830Z,3.87
2018-09-10T08:39:32.812Z,3.10
2018-09-10T08:42:00.757Z,3.33
2018-09-10T08:44:28.954Z,2.50
2018-09-10T08:46:56.954Z,2.80
2018-09-10T08:49:24.896Z,4.00
2018-09-10T08:51:52.900Z,3.20
2018-09-10T08:54:21.039Z,3.23
2018-09-10T08:56:48.893Z,2.47
2018-09-10T08:59:16.895Z,2.23
2018-09-10T09:01:45.500Z,2.50
2018-09-10T09:04:13.384Z,2.60
2018-09-10T09:06:42.414Z,3.00
2018-09-10T09:09:10.502Z,2.70
2018-09-10T09:11:38.429Z,7.53
2018-09-10T09:14:06.415Z,3.30
2018-09-10T09:16:34.346Z,2.73
2018-09-10T09:19:02.324Z,16.43
2018-09-10T09:21:30.279Z,3.20
2018-09-10T09:23:58.208Z,3.63
2018-09-10T09:26:26.142Z,3.83
2018-09-10T09:28:54.189Z,2.63
2018-09-10T09:31:22.149Z,3.20
2018-09-10T09:33:50.241Z,4.40
2018-09-10T09:36:23.613Z,3.90
2018-09-10T09:38:56.915Z,3.13
2018-09-10T09:41:30.293Z,3.30
2018-09-10T09:44:04.045Z,4.40
2018-09-10T09:46:31.990Z,3.70
2018-09-10T09:48:59.978Z,6.77
2018-09-10T09:51:27.928Z,4.20
2018-09-10T09:53:55.896Z,3.60
2018-09-10T09:56:23.817Z,3.50
2018-09-10T09:58:52.443Z,2.77
2018-09-10T10:01:27.682Z,3.07
2018-09-10T10:03:56.677Z,4.30
2018-09-10T10:06:25.260Z,5.97
2018-09-10T10:08:53.290Z,4.63
2018-09-10T10:11:21.309Z,6.33
2018-09-10T10:13:49.217Z,2.70
2018-09-10T10:16:17.232Z,2.77
2018-09-10T10:18:45.443Z,3.30
2018-09-10T10:21:13.511Z,4.37
2018-09-10T10:23:41.532Z,3.10
2018-09-10T10:26:09.482Z,3.00
2018-09-10T10:28:37.431Z,4.57
2018-09-10T10:31:05.633Z,3.47
2018-09-10T10:33:33.580Z,3.97
2018-09-10T10:36:01.560Z,3.53
2018-09-10T10:38:29.504Z,2.90
2018-09-10T10:40:57.460Z,4.63
2018-09-10T10:43:25.384Z,3.57
2018-09-10T10:45:53.330Z,3.53
2018-09-10T10:48:21.267Z,3.20
2018-09-10T10:50:49.336Z,3.33
2018-09-10T10:53:17.549Z,3.93
2018-09-10T10:55:45.525Z,3.30
2018-09-10T10:58:13.520Z,3.53
2018-09-10T11:00:41.521Z,3.50
2018-09-10T11:03:09.551Z,3.40
2018-09-10T11:05:37.677Z,2.70
2018-09-10T11:08:05.728Z,4.57
2018-09-10T11:10:33.722Z,3.30
2018-09-10T11:13:01.778Z,3.23
2018-09-10T11:15:29.735Z,2.27
2018-09-10T11:17:57.719Z,2.50
2018-09-10T11:20:25.682Z,2.40
2018-09-10T11:22:53.681Z,2.80
2018-09-10T11:25:21.617Z,3.12
2018-09-10T11:27:49.704Z,2.53
2018-09-10T11:30:17.584Z,2.20
2018-09-10T11:32:45.592Z,3.37
2018-09-10T11:35:13.548Z,2.50
2018-09-10T11:37:41.650Z,2.20
2018-09-10T11:40:09.591Z,2.90
2018-09-10T11:42:37.542Z,2.87
2018-09-10T11:45:05.648Z,3.20
2018-09-10T11:47:33.602Z,3.37
2018-09-10T11:50:01.620Z,2.75
2018-09-10T11:52:29.626Z,3.00
2018-09-10T11:54:57.576Z,3.20
2018-09-10T11:57:25.534Z,3.37
2018-09-10T11:59:53.545Z,2.70
2018-09-10T12:02:21.481Z,2.55
2018-09-10T12:04:49.446Z,2.87
2018-09-10T12:07:17.428Z,3.05
2018-09-10T12:09:45.365Z,3.03
2018-09-10T12:12:13.356Z,4.00
2018-09-10T12:14:41.306Z,3.58
2018-09-10T12:17:09.281Z,3.12
2018-09-10T12:19:37.283Z,3.08
2018-09-10T12:22:05.236Z,2.90
2018-09-10T12:24:33.198Z,2.20
2018-09-10T12:27:01.407Z,3.25
2018-09-10T12:29:29.346Z,4.63
2018-09-10T12:31:57.319Z,3.62
2018-09-10T12:34:25.341Z,4.15
2018-09-10T12:36:53.280Z,2.87
2018-09-10T12:39:21.378Z,3.47
2018-09-10T12:41:49.311Z,2.75
2018-09-10T12:44:17.947Z,2.80
2018-09-10T12:46:45.949Z,2.80
2018-09-10T12:49:13.864Z,2.10
2018-09-10T12:51:41.861Z,1.87
2018-09-10T12:54:09.800Z,2.00
2018-09-10T12:56:37.791Z,2.73
2018-09-10T12:59:05.755Z,3.03
2018-09-10T13:01:33.756Z,2.20
2018-09-10T13:04:01.766Z,2.83
2018-09-10T13:06:29.679Z,3.73
2018-09-10T13:08:57.638Z,4.53
2018-09-10T13:11:25.643Z,4.33
2018-09-10T13:13:53.644Z,3.95
2018-09-10T13:16:21.683Z,3.07
2018-09-10T13:18:49.570Z,3.43
2018-09-10T13:21:18.440Z,5.62
2018-09-10T13:23:46.410Z,3.07
2018-09-10T13:26:14.373Z,5.80
2018-09-10T13:28:42.357Z,4.40
2018-09-10T13:31:10.409Z,5.00
2018-09-10T13:33:38.384Z,5.20
2018-09-10T13:36:06.704Z,5.20
2018-09-10T13:38:35.858Z,3.13
2018-09-10T13:41:03.794Z,2.60
2018-09-10T13:43:31.797Z,4.50
2018-09-10T13:45:59.739Z,3.17
2018-09-10T13:48:27.698Z,3.43
2018-09-10T13:50:59.354Z,3.37
2018-09-10T13:53:27.312Z,4.87
2018-09-10T13:55:55.269Z,4.47
2018-09-10T13:58:23.251Z,4.17
2018-09-10T14:00:51.192Z,3.40
2018-09-10T14:03:19.156Z,3.37
2018-09-10T14:05:47.112Z,2.63
2018-09-10T14:08:15.107Z,3.47
2018-09-10T14:10:43.133Z,2.70
2018-09-10T14:13:11.029Z,3.07
2018-09-10T14:15:38.998Z,3.00
2018-09-10T14:18:07.261Z,3.00
2018-09-10T14:20:35.191Z,2.93
2018-09-10T14:23:03.136Z,3.17
2018-09-10T14:25:31.100Z,3.30
2018-09-10T14:27:59.102Z,3.27
2018-09-10T14:30:27.104Z,3.50
2018-09-10T14:32:55.127Z,3.20
2018-09-10T14:35:23.087Z,3.15
2018-09-10T14:37:51.083Z,3.10
2018-09-10T14:40:19.024Z,2.35
2018-09-10T14:42:47.004Z,3.47
2018-09-10T14:45:14.969Z,4.00
2018-09-10T14:47:42.972Z,3.40
2018-09-10T14:50:10.952Z,4.07
2018-09-10T14:52:39.047Z,3.67
2018-09-10T14:55:07.079Z,4.10
2018-09-10T14:57:35.092Z,3.80
2018-09-10T15:00:03.062Z,3.90
2018-09-10T15:02:31.093Z,3.67
2018-09-10T15:04:59.136Z,3.63
2018-09-10T15:07:27.097Z,3.80
2018-09-10T15:09:55.067Z,4.13
2018-09-10T15:12:23.083Z,3.50
2018-09-10T15:14:51.093Z,4.23
2018-09-10T15:17:19.316Z,3.40
2018-09-10T15:19:47.326Z,3.57
2018-09-10T15:22:22.445Z,3.23
2018-09-10T15:24:50.471Z,3.50
2018-09-10T15:27:18.438Z,3.30
2018-09-10T15:29:46.403Z,3.20
2018-09-10T15:32:14.373Z,3.10
2018-09-10T15:34:42.358Z,3.50
2018-09-10T15:37:10.567Z,3.80
2018-09-10T15:39:38.498Z,4.03
2018-09-10T15:42:06.484Z,3.77
2018-09-10T15:44:34.819Z,3.10
2018-09-10T15:47:02.741Z,3.50
2018-09-10T15:49:30.738Z,4.90
2018-09-10T15:51:59.007Z,4.13
2018-09-10T15:54:26.978Z,3.10
2018-09-10T15:56:54.948Z,3.37
2018-09-10T15:59:22.919Z,3.87
2018-09-10T16:01:50.860Z,3.20
2018-09-10T16:04:18.843Z,3.50
2018-09-10T16:06:46.769Z,3.20
2018-09-10T16:09:15.003Z,3.93
2018-09-10T16:11:43.008Z,3.30
2018-09-10T16:14:10.963Z,3.67
2018-09-10T16:16:38.934Z,3.40
2018-09-10T16:19:06.907Z,3.90
2018-09-10T16:21:34.845Z,3.20
2018-09-10T16:24:02.809Z,2.30
2018-09-10T16:26:30.775Z,1.97
2018-09-10T16:28:58.707Z,2.37
2018-09-10T16:31:26.658Z,2.00
2018-09-10T16:33:54.689Z,2.30
2018-09-10T16:36:22.594Z,2.10
2018-09-10T16:38:50.805Z,1.90
2018-09-10T16:41:18.749Z,2.20
2018-09-10T16:43:46.743Z,2.07
2018-09-10T16:46:14.715Z,2.20
2018-09-10T16:48:42.664Z,2.40
2018-09-10T16:51:10.605Z,2.33
2018-09-10T16:53:38.532Z,2.37
2018-09-10T16:56:06.534Z,2.03
2018-09-10T16:58:34.509Z,2.80
2018-09-10T17:01:02.552Z,2.50
2018-09-10T17:03:30.596Z,2.50
2018-09-10T17:05:58.546Z,2.43
2018-09-10T17:08:26.613Z,2.60
2018-09-10T17:10:54.559Z,2.33
2018-09-10T17:13:22.507Z,2.57
2018-09-10T17:15:50.549Z,2.27
2018-09-10T17:18:18.507Z,2.33
2018-09-10T17:20:46.519Z,2.33
2018-09-10T17:23:14.459Z,2.33
2018-09-10T17:25:42.419Z,2.60
2018-09-10T17:28:10.403Z,2.20
2018-09-10T17:30:38.362Z,2.17
2018-09-10T17:33:06.290Z,2.53
2018-09-10T17:35:34.239Z,2.27
2018-09-10T17:38:02.200Z,2.23
2018-09-10T17:40:30.397Z,2.37
2018-09-10T17:42:58.322Z,2.40
2018-09-10T17:45:26.295Z,2.43
2018-09-10T17:47:54.568Z,2.37
2018-09-10T17:50:22.504Z,2.53
2018-09-10T17:52:50.554Z,2.10
2018-09-10T17:55:18.513Z,2.27
2018-09-10T17:57:46.463Z,3.40
2018-09-10T18:00:14.401Z,2.10
2018-09-10T18:02:42.345Z,2.23
2018-09-10T18:05:10.331Z,2.40
2018-09-10T18:07:38.303Z,2.60
2018-09-10T18:10:06.299Z,2.20
2018-09-10T18:12:34.265Z,2.57
2018-09-10T18:15:02.260Z,2.63
2018-09-10T18:17:30.309Z,10.93
2018-09-10T18:19:58.246Z,2.30
2018-09-10T18:22:26.243Z,7.03
2018-09-10T18:24:54.255Z,4.37
2018-09-10T18:27:22.162Z,2.73
2018-09-10T18:29:50.147Z,2.73
2018-09-10T18:32:18.053Z,2.47
2018-09-10T18:34:46.000Z,2.63
2018-09-10T18:37:14.278Z,2.80
2018-09-10T18:39:42.210Z,2.83
2018-09-10T18:42:10.208Z,4.87
2018-09-10T18:44:38.170Z,3.40
2018-09-10T18:47:06.168Z,2.53
2018-09-10T18:49:34.103Z,3.13
2018-09-10T18:52:02.057Z,2.57
2018-09-10T18:54:30.018Z,13.30
2018-09-10T18:56:58.044Z,3.03
2018-09-10T18:59:29.433Z,5.07
2018-09-10T19:01:57.373Z,3.70
2018-09-10T19:04:25.326Z,3.30
2018-09-10T19:06:53.296Z,3.27
2018-09-10T19:09:21.264Z,3.00
2018-09-10T19:11:49.484Z,3.20
2018-09-10T19:14:17.461Z,3.17
2018-09-10T19:16:45.413Z,2.63
2018-09-10T19:19:13.728Z,2.93
2018-09-10T19:21:41.661Z,3.23
2018-09-10T19:24:09.689Z,3.00
2018-09-10T19:26:37.627Z,3.47
2018-09-10T19:29:05.599Z,3.20
2018-09-10T19:31:33.538Z,2.40
2018-09-10T19:34:01.597Z,2.70
2018-09-10T19:36:29.591Z,2.90
2018-09-10T19:38:57.953Z,3.30
2018-09-10T19:41:29.201Z,2.50
2018-09-10T19:43:57.257Z,2.73
2018-09-10T19:46:25.231Z,2.80
2018-09-10T19:48:53.280Z,3.60
2018-09-10T19:51:21.216Z,3.63
2018-09-10T19:53:49.429Z,3.13
2018-09-10T19:56:17.362Z,3.27
2018-09-10T19:58:45.337Z,2.63
2018-09-10T20:01:13.281Z,3.20
2018-09-10T20:03:41.229Z,3.10
2018-09-10T20:06:09.189Z,3.27
2018-09-10T20:08:37.147Z,3.00
2018-09-10T20:11:05.126Z,3.47
2018-09-10T20:13:33.176Z,3.37
2018-09-10T20:16:01.220Z,2.90
2018-09-10T20:18:29.220Z,3.47
2018-09-10T20:20:57.190Z,5.13
2018-09-10T20:23:25.182Z,3.70
2018-09-10T20:25:53.250Z,3.50
2018-09-10T20:28:21.343Z,3.73
2018-09-10T20:30:49.413Z,2.90
2018-09-10T20:33:17.460Z,3.30
2018-09-10T20:35:45.432Z,3.50
2018-09-10T20:38:13.463Z,3.93
2018-09-10T20:40:41.520Z,4.10
2018-09-10T20:43:09.534Z,3.43
2018-09-10T20:45:37.541Z,3.20
2018-09-10T20:48:05.536Z,3.97
2018-09-10T20:50:33.551Z,3.80
2018-09-10T20:53:01.546Z,3.53
2018-09-10T20:55:29.643Z,3.30
2018-09-10T20:57:57.608Z,3.73
2018-09-10T21:00:25.559Z,4.33
2018-09-10T21:02:53.528Z,4.07
2018-09-10T21:05:21.536Z,3.83
2018-09-10T21:07:49.850Z,3.93
2018-09-10T21:10:17.805Z,3.57
2018-09-10T21:12:45.741Z,3.20
2018-09-10T21:15:13.826Z,3.40
2018-09-10T21:17:41.743Z,3.80
2018-09-10T21:20:09.664Z,3.53
2018-09-10T21:22:37.819Z,4.47
2018-09-10T21:25:05.861Z,3.50
2018-09-10T21:27:33.800Z,3.90
2018-09-10T21:30:01.762Z,3.43
2018-09-10T21:32:29.693Z,4.70
2018-09-10T21:34:57.709Z,4.40
2018-09-10T21:37:25.684Z,4.00
2018-09-10T21:39:53.837Z,3.47
2018-09-10T21:42:21.838Z,3.73
2018-09-10T21:44:49.775Z,4.00
2018-09-10T21:47:17.759Z,4.13
2018-09-10T21:49:45.760Z,4.37
2018-09-10T21:52:13.721Z,3.93
2018-09-10T21:54:41.686Z,3.80
2018-09-10T21:57:09.641Z,4.00
2018-09-10T21:59:37.673Z,3.53
2018-09-10T22:02:05.801Z,3.90
2018-09-10T22:04:33.751Z,3.77
2018-09-10T22:07:01.694Z,3.40
2018-09-10T22:09:29.652Z,3.20
2018-09-10T22:12:01.726Z,3.47
2018-09-10T22:14:29.832Z,3.80
2018-09-10T22:16:57.792Z,3.43
2018-09-10T22:19:25.717Z,3.23
2018-09-10T22:21:53.680Z,3.90
2018-09-10T22:24:21.651Z,3.60
2018-09-10T22:26:49.692Z,11.47
2018-09-10T22:29:20.935Z,4.10
2018-09-10T22:31:48.883Z,3.20
2018-09-10T22:34:17.108Z,3.23
2018-09-10T22:36:45.070Z,3.20
2018-09-10T22:39:14.189Z,3.13
2018-09-10T22:41:42.572Z,3.10
2018-09-10T22:44:10.617Z,3.17
2018-09-10T22:46:38.546Z,2.90
2018-09-10T22:49:07.451Z,3.50
2018-09-10T22:51:35.592Z,3.43
2018-09-10T22:54:03.565Z,3.27
2018-09-10T22:56:31.517Z,3.00
2018-09-10T22:58:59.466Z,3.10
2018-09-10T23:01:27.431Z,3.07
2018-09-10T23:03:55.405Z,2.97
2018-09-10T23:06:23.378Z,3.00
2018-09-10T23:08:51.453Z,2.90
2018-09-10T23:11:19.390Z,3.23
2018-09-10T23:13:47.372Z,2.90
2018-09-10T23:16:15.320Z,3.00
2018-09-10T23:18:43.338Z,2.90
2018-09-10T23:21:11.297Z,3.17
2018-09-10T23:23:39.537Z,3.13
2018-09-10T23:26:07.568Z,3.10
2018-09-10T23:28:35.513Z,2.93
2018-09-10T23:31:03.610Z,2.80
2018-09-10T23:33:31.561Z,2.50
2018-09-10T23:35:59.608Z,3.13
2018-09-10T23:38:27.561Z,2.73
2018-09-10T23:40:55.521Z,2.80
2018-09-10T23:43:23.461Z,2.80
2018-09-10T23:45:51.482Z,2.40
2018-09-10T23:48:19.424Z,3.00
2018-09-10T23:50:47.362Z,3.10
2018-09-10T23:53:15.330Z,2.80
2018-09-10T23:55:43.254Z,3.00
2018-09-10T23:58:11.208Z,2.77
